Tiempo atmosférico en la estación meteorológica de Santa Elena, Jaén (742 m.)



Fecha
DESCASC
Temp. máxima en grados centígrados (hora)
DESCASC
Temp. mínima en grados centígrados (hora)
DESCASC
Temp. media en grados centígrados
DESCASC
Racha de viento máxima en m/sg (hora)
DESCASC
Velocidad máxima media en intervalos de 10 minutos(hora)
DESCASC
Precipitaciones diarias en mm
DESCASC
Precipitaciones de 00:00 a 06:00 en mm
DESCASC
Precipitaciones de 06:00 a 12:00 en mm
DESCASC
Precipitaciones de 12:00 a 18:00 en mm
DESCASC
Precipitaciones de 18:00 a 24:00 en mm
DESCASC
15-05-2019 31.9 (18:10) 14.8 (00:00) 23.3 9.72 (18:30) 4.17 (18:30) 0 0 0 0 0
16-05-2019 29.5 (16:20) 16.4 (00:00) 22.9 15.56 (19:40) 6.39 (19:50) 0 0 0 0 0
23-05-2019 30.3 (18:20) 15 (07:20) 22.6 9.72 (17:00) 3.89 (14:50) 0 0 0 0 0
14-05-2019 30.2 (19:10) 13.2 (00:00) 21.7 6.94 (17:50) 3.61 (23:59) 0 0 0 0 0
11-05-2019 28.7 (16:30) 14.3 (00:00) 21.5 10 (17:00) 4.72 (17:00) 0 0 0 0 0
13-05-2019 29.4 (16:30) 13.3 (00:00) 21.3 10.28 (14:30) 6.11 (08:50) 0 0 0 0 0
22-05-2019 29.9 (16:10) 12.2 (07:00) 21 7.5 (01:30) 2.78 (18:30) 0 0 0 0 0
01-05-2019 28 (16:10) 14 (00:00) 21 6.67 (23:30) 3.61 (23:30) 0 0 0 0 0
12-05-2019 28.9 (16:40) 12.8 (00:00) 20.8 10 (07:20) 5.28 (22:50) 0 0 0 0 0
10-05-2019 27.7 (18:40) 13.4 (00:00) 20.6 7.78 (17:00) 3.89 (22:00) 0 0 0 0 0
21-05-2019 26.7 (19:30) 12.1 (07:50) 19.4 8.06 (16:10) 3.61 (19:50) 0 0 0 0 0
02-05-2019 25.6 (17:50) 12.9 (07:20) 19.3 13.89 (03:40) 6.67 (03:40) 0 0 0 0 0
30-04-2019 25.9 (15:20) 12 (00:00) 18.9 5.83 (14:50) 2.5 (15:20) 0 0 0 0 0
29-04-2019 26.1 (15:50) 11.3 (00:00) 18.7 7.22 (16:00) 3.06 (16:10) 0 0 0 0 0
03-05-2019 25.4 (15:40) 11.6 (00:00) 18.5 13.89 (22:00) 7.22 (18:20) 0 0 0 0 0
06-05-2019 24.7 (16:00) 11.8 (00:00) 18.3 8.89 (14:10) 3.89 (00:40) 0 0 0 0 0
07-05-2019 25.8 (18:50) 10.7 (00:00) 18.2 6.94 (13:10) 3.33 (13:10) 0 0 0 0 0
28-04-2019 25.7 (15:50) 10.5 (00:00) 18.1 9.17 (00:30) 4.17 (23:30) 0 0 0 0 0
05-05-2019 23.6 (19:00) 11.8 (00:00) 17.7 8.61 (19:10) 4.17 (19:00) 0 0 0 0 0
09-05-2019 21.1 (19:20) 12.4 (00:00) 16.8 7.78 (00:30) 3.89 (00:20) 0 0 0 0 0
20-05-2019 22.9 (18:20) 9.5 (06:10) 16.2 7.5 (13:40) 4.44 (00:30) 0 0 0 0 0
08-05-2019 19.7 (14:40) 12.7 (00:00) 16.2 12.78 (12:50) 5.83 (12:50) 0 0 0 0 0
04-05-2019 23.4 (16:20) 8.7 (00:00) 16 11.67 (01:10) 6.67 (01:00) 0 0 0 0 0
19-05-2019 21.8 (16:10) 9.5 (00:00) 15.6 10.83 (17:40) 5.56 (19:10) 0 0 0 0 0
27-04-2019 22.8 (16:40) 7.8 (00:00) 15.3 8.89 (23:59) 4.17 (23:59) 0 0 0 0 0
18-05-2019 19.8 (18:40) 10.1 (00:00) 14.9 13.06 (14:40) 6.67 (17:00) 0 0 0 0 0
17-05-2019 20.1 (19:00) 8.6 (00:00) 14.4 12.5 (01:20) 6.94 (01:30) 0 0 0 0 0
26-04-2019 17.2 (17:30) 4.2 (00:00) 10.7 9.44 (00:50) 5 (00:50) 0 0 0 0 0

Gráficas

Temp. máximas Temp. mínimas Temp. medias Precipitaciones Rachas de viento máximas Velocidades máximas media en intervalos de 10 minutos

Datos horarios

Fecha y hora oficial Temperatura (ºC) Velocidad del viento (km/h) Dirección del viento Racha (km/h) Dirección de racha Precipitación (mm) Presión (hPa) Tendencia (hPa) Humedad (%)
2019-05-25 23:00:00 18.6 9 Norte 23 Norte 0 929.5 1.5 31
2019-05-25 22:00:00 19.7 12 Norte 24 Norte 0 928.9 1 29
2019-05-25 21:00:00 22.4 14 Norte 31 Noroeste 0 928.4 0.5 25
2019-05-25 20:00:00 24.3 14 Norte 28 Norte 0 928 0.1 22
2019-05-25 19:00:00 25 15 Norte 33 Nordeste 0 927.9 -0.2 22
2019-05-25 18:00:00 24.4 19 Norte 37 Noroeste 0 927.9 -0.8 23
2019-05-25 17:00:00 24.3 17 Norte 37 Norte 0 927.9 -1.1 24
2019-05-25 16:00:00 24.5 12 Norte 35 Nordeste 0 928.1 -1.2 27
2019-05-25 15:00:00 22.5 18 Norte 42 Norte 0 928.7 -0.5 29
2019-05-25 14:00:00 21.2 14 Nordeste 37 Norte 0 929 -0.2 34
2019-05-25 13:00:00 20.5 14 Norte 37 Norte 0 929.3 0.3 39
2019-05-25 12:00:00 18.1 20 Norte 36 Norte 0 929.2 0.5 44
2019-05-25 11:00:00 16.7 14 Nordeste 31 Nordeste 0 929.2 0.9 50
2019-05-25 10:00:00 15.9 14 Nordeste 30 Norte 0 929 1.3 53
2019-05-25 09:00:00 12.5 12 Norte 26 Norte 0 928.7 1.3 66
2019-05-25 08:00:00 10.6 9 Norte 37 Norte 0 928.3 1.2 72
2019-05-25 07:00:00 10.9 21 Norte 36 Norte 0 927.7 0.7 80
2019-05-25 06:00:00 11.3 17 Norte 26 Norte 0 927.4 0.6 73
2019-05-25 05:00:00 12.2 11 Norte 22 Norte 0 927.1 0 71
2019-05-25 04:00:00 13 15 Nordeste 27 Norte 0 927 -0.1 70
2019-05-25 03:00:00 13.9 20 Norte 32 Nordeste 0 926.8 0.1 68
2019-05-25 02:00:00 14.4 12 Norte 21 Norte 0 927.1 0.7 67
2019-05-25 01:00:00 15.3 11 Norte 19 Norte 0 927.1 1.5 63
2019-05-25 00:00:00 16.6 12 Norte 24 Norte 0 926.7 1.9 56
2019-05-24 23:00:00 17.9 12 Norte 26 Norte 0 926.4 2.2 51
2019-05-24 22:00:00 19.2 8 Nordeste 45 Norte 0 925.6 2 49
2019-05-24 21:00:00 21 18 Nordeste 52 Nordeste 0 924.8 1.2 37
2019-05-24 20:00:00 23.2 25 Norte 53 Norte 0 924.2 0.5 31
2019-05-24 19:00:00 26.8 18 Norte 42 Norte 0 923.6 -0.5 21
2019-05-24 18:00:00 24.8 17 Norte 36 Noroeste 0 923.6 -1 26
2019-05-24 17:00:00 26.3 12 Norte 28 Noroeste 0 923.7 -1.4 21
2019-05-24 16:00:00 25.8 13 Noroeste 23 Norte 0 924.1 -1.3 23
2019-05-24 15:00:00 25.8 7 Oeste 21 Norte 0 924.6 -1.2 25
2019-05-24 14:00:00 23.6 8 Sudoeste 27 Sudoeste 0 925.1 -0.9 30
2019-05-24 13:00:00 23.1 10 Sudoeste 22 Oeste 0 925.4 -0.3 33
2019-05-24 12:00:00 21.8 7 Sudoeste 21 Sudoeste 0 925.8 -0.1 34
2019-05-24 11:00:00 19 4 Norte 8 Norte 0 926 0.1 43
2019-05-24 10:00:00 16.7 2 Norte 7 Sur 0 925.7 0 45
2019-05-24 09:00:00 16.4 3 Este 12 Sudeste 0 925.9 -0.3 47
2019-05-24 08:00:00 16.1 3 Sudoeste 7 Sudoeste 0 925.9 -0.4 44
2019-05-24 07:00:00 16 7 Sudoeste 9 Sudoeste 0 925.7 -0.9 42
2019-05-24 06:00:00 16.7 6 Sur 9 Sur 0 926.2 -0.8 41
2019-05-24 05:00:00 17.5 4 Norte 12 Sudoeste 0 926.3 -0.8 36
2019-05-24 04:00:00 18.7 4 Oeste 18 Sudoeste 0 926.6 -0.9 33
2019-05-24 03:00:00 19.3 8 Sudoeste 18 Oeste 0 927 -0.7 30
2019-05-24 02:00:00 20.8 6 Oeste 16 Noroeste 0 927.1 -0.7 27
2019-05-24 01:00:00 21.5 10 Noroeste 27 Noroeste 0 927.5 0.1 28
2019-05-24 00:00:00 21.8 8 Oeste 18 Oeste 0 927.7 0.5 28
2019-05-23 23:00:00 22.5 8 Oeste 17 Sudoeste 0 927.8 0.6 27
2019-05-23 22:00:00 23.7 8 Sudoeste 15 Sudoeste 0 927.4 0.1 25
2019-05-23 21:00:00 25.7 8 Sudoeste 17 Sur 0 927.2 -0.7 21
2019-05-23 20:00:00 29.5 7 Sur 21 Sudoeste 0 927.2 -0.9 14
2019-05-23 19:00:00 29.3 9 Sudoeste 24 Sudoeste 0 927.3 -1.4 16
2019-05-23 18:00:00 30.2 8 Sur 25 Noroeste 0 927.9 -1.4 16
2019-05-23 17:00:00 29.8 9 Sur 35 Sur 0 928.1 -1.8 17
2019-05-23 16:00:00 28.7 13 Sur 32 Sur 0 928.7 -1.5 20
2019-05-23 15:00:00 28.8 13 Sudoeste 31 Sudoeste 0 929.3 -1.3 20
2019-05-23 14:00:00 28 7 Sudoeste 23 Sur 0 929.9 -0.9 23
2019-05-23 13:00:00 26.3 7 Sur 18 Sudoeste 0 930.2 -0.6 27
2019-05-23 12:00:00 24.4 7 Sur 16 Sur 0 930.6 0 32
2019-05-23 11:00:00 22.4 6 Sur 15 Sur 0 930.8 0.6 37
2019-05-23 10:00:00 19.7 8 Sudoeste 19 Sudoeste 0 930.8 0.8 42
2019-05-23 09:00:00 16.9 8 Sudoeste 19 Sudoeste 0 930.6 0.7 52
2019-05-23 08:00:00 15.1 4 Sur 8 Sur 0 930.2 0.4 57
2019-05-23 07:00:00 15.1 4 Sudoeste 10 Sudoeste 0 930 0.3 54
2019-05-23 06:00:00 15.6 6 Sudoeste 12 Sur 0 929.9 0.1 47
2019-05-23 05:00:00 16.4 6 Sudoeste 9 Sudoeste 0 929.8 -0.1 40
2019-05-23 04:00:00 17.2 5 Sur 18 Sudoeste 0 929.7 0.1 37
2019-05-23 03:00:00 17.8 9 Sudoeste 18 Sudoeste 0 929.8 0.3 30
2019-05-23 02:00:00 18.6 3 Noroeste 19 Sur 0 929.9 0.5 29
2019-05-23 01:00:00 20.5 10 Oeste 16 Sudoeste 0 929.6 0.6 24
2019-05-23 00:00:00 20.8 8 Oeste 15 Oeste 0 929.5 0.9 23
2019-05-22 23:00:00 21.6 8 Oeste 14 Oeste 0 929.4 1.1 22
2019-05-22 22:00:00 23 6 Oeste 12 Oeste 0 929 0.8 21
2019-05-22 21:00:00 25.6 5 Sudoeste 16 Sudoeste 0 928.6 0.2 19
2019-05-22 20:00:00 27 6 Sudoeste 19 Sur 0 928.3 -0.2 19
2019-05-22 19:00:00 29.6 5 Sur 25 Sudoeste 0 928.2 -0.7 15
2019-05-22 18:00:00 29 6 Sudeste 24 Sur 0 928.4 -0.9 16
2019-05-22 17:00:00 29 7 Sur 23 Este 0 928.5 -1.1 18
2019-05-22 16:00:00 29.3 6 Sur 24 Sudeste 0 928.9 -1.1 17
2019-05-22 15:00:00 27.5 8 Sudoeste 22 Sur 0 929.3 -0.8 21
2019-05-22 14:00:00 26.7 8 Sur 18 Sudeste 0 929.6 -0.4 23
2019-05-22 13:00:00 25.3 5 Sur 20 Sudoeste 0 930 0.1 27
2019-05-22 12:00:00 23.4 6 Sur 18 Sudoeste 0 930.1 0.6 34
2019-05-22 11:00:00 21 4 Sur 16 Sur 0 930 0.8 45
2019-05-22 10:00:00 18.2 5 Sudoeste 12 Sudoeste 0 929.9 1.3 55
2019-05-22 09:00:00 14.6 4 Sur 10 Sur 0 929.5 1 68
2019-05-22 08:00:00 12.5 2 Norte 5 Noroeste 0 929.2 0.8 71
2019-05-22 07:00:00 12.3 0 Calma 5 Noroeste 0 928.6 0.2 69
2019-05-22 06:00:00 13 3 Este 11 Sudeste 0 928.5 0 68
2019-05-22 05:00:00 13.6 4 Sur 11 Sur 0 928.4 0.1 66
2019-05-22 04:00:00 14.7 5 Sur 13 Sur 0 928.4 0.4 62
2019-05-22 03:00:00 16.2 3 Sur 13 Sur 0 928.5 0.5 52
2019-05-22 02:00:00 17.6 7 Sur 27 Sur 0 928.3 0.5 41
2019-05-22 01:00:00 18.3 5 Oeste 13 Oeste 0 928 0.9 36
2019-05-22 00:00:00 18.6 8 Oeste 14 Sudoeste 0 928 1.4 34
2019-05-21 23:00:00 19.5 7 Sudoeste 12 Oeste 0 927.8 1.8 32
2019-05-21 22:00:00 20.7 6 Oeste 12 Sudoeste 0 927.1 1.3 29
2019-05-21 21:00:00 22.8 7 Oeste 20 Oeste 0 926.6 0.7 26
2019-05-21 20:00:00 24.7 11 Noroeste 22 Oeste 0 926 0 22
2019-05-21 19:00:00 24.6 4 Sudoeste 18 Noroeste 0 925.8 -0.4 24
2019-05-21 18:00:00 24.1 9 Noroeste 22 Sudoeste 0 925.9 -0.6 24
2019-05-21 17:00:00 24.9 5 Sur 29 Sudoeste 0 926 -0.8 23
2019-05-21 16:00:00 25.4 6 Sur 27 Sur 0 926.2 -0.8 21
2019-05-21 15:00:00 25.9 8 Sur 27 Sur 0 926.5 -0.7 20
2019-05-21 14:00:00 24.2 8 Sudoeste 22 Sur 0 926.8 -0.4 25
2019-05-21 13:00:00 22.8 9 Sur 19 Sur 0 927 -0.1 28
2019-05-21 12:00:00 21.3 6 Sur 19 Sur 0 927.2 0.5 35
2019-05-21 11:00:00 19.3 5 Sudeste 15 Este 0 927.2 0.9 43
2019-05-21 10:00:00 16.4 5 Sur 13 Sur 0 927.1 1.4 50
2019-05-21 09:00:00 13.6 3 Este 8 Este 0 926.7 1.2 59
2019-05-21 08:00:00 12.1 2 Nordeste 6 Nordeste 0 926.3 0.8 60
2019-05-21 07:00:00 12.6 3 Sur 6 Sudeste 0 925.7 0.5 56
2019-05-21 06:00:00 13 4 Norte 9 Sudeste 0 925.5 0 55
2019-05-21 05:00:00 13.8 5 Sudeste 9 Sudeste 0 925.5 -0.2 54
2019-05-21 04:00:00 14.1 4 Sur 10 Sudoeste 0 925.2 -0.7 49
2019-05-21 03:00:00 15 4 Sudeste 8 Sur 0 925.5 -0.1 45
2019-05-21 02:00:00 16.3 5 Sur 12 Sudeste 0 925.7 0.2 39
2019-05-21 01:00:00 17.2 6 Sur 12 Sur 0 925.9 1.2 36
2019-05-21 00:00:00 17.6 3 Norte 9 Noroeste 0 925.6 1.3 34
2019-05-20 23:00:00 18.2 4 Oeste 13 Sudoeste 0 925.5 1.5 33
2019-05-20 22:00:00 18.9 7 Sudoeste 12 Sudoeste 0 924.7 0.5 32
2019-05-20 21:00:00 20.4 5 Sudoeste 15 Oeste 0 924.3 0 30
2019-05-20 20:00:00 21.4 6 Sudoeste 23 Oeste 0 924 -0.4 29
2019-05-20 19:00:00 21.5 8 Oeste 22 Sudoeste 0 924.2 -0.5 29
2019-05-20 18:00:00 22.4 12 Sudoeste 24 Sudoeste 0 924.3 -0.8 27
2019-05-20 17:00:00 22.1 9 Sudoeste 22 Sudoeste 0 924.4 -1.1 28
2019-05-20 16:00:00 22.2 7 Oeste 23 Sudoeste 0 924.7 -0.9 30
2019-05-20 15:00:00 20.8 10 Sudoeste 22 Sudoeste 0 925.1 -0.5 33
2019-05-20 14:00:00 21.7 10 Sudoeste 27 Sur 0 925.5 -0.3 34
2019-05-20 13:00:00 20.8 7 Sur 22 Sur 0 925.6 -0.1 36
2019-05-20 12:00:00 19.4 8 Sur 18 Sur 0 925.6 0.3 44
2019-05-20 11:00:00 16.9 6 Sudeste 16 Sur 0 925.8 0.9 55
2019-05-20 10:00:00 14.1 3 Noroeste 10 Norte 0 925.7 1.2 70
2019-05-20 09:00:00 11.8 2 Norte 6 Norte 0 925.3 1 80
2019-05-20 08:00:00 10.6 0 Calma 5 Norte 0 924.9 0.7 76
2019-05-20 07:00:00 10 0 Calma 6 Sur 0 924.5 0.2 60
2019-05-20 06:00:00 9.7 2 Oeste 10 Sur 0 924.3 -0.2 72
2019-05-20 05:00:00 10.6 6 Sur 11 Sur 0 924.2 -0.7 61
2019-05-20 04:00:00 11.1 3 Noroeste 12 Sur 0 924.3 -0.8 55
2019-05-20 03:00:00 12 5 Sudoeste 12 Oeste 0 924.5 -0.5 40
2019-05-20 02:00:00 13.1 8 Sudoeste 17 Sudoeste 0 924.9 0 31
2019-05-20 01:00:00 14.9 14 Oeste 21 Oeste 0 925.1 0.9 26
2019-05-20 00:00:00 14.9 13 Oeste 19 Oeste 0 925 1.3 26
2019-05-19 23:00:00 15.4 13 Noroeste 20 Oeste 0 924.9 1.6 25
2019-05-19 22:00:00 15.9 8 Oeste 17 Oeste 0 924.2 1.2 27
2019-05-19 21:00:00 17.4 9 Oeste 24 Noroeste 0 923.7 0.7 24
2019-05-19 20:00:00 20.1 14 Noroeste 34 Oeste 0 923.3 -0.2 18
2019-05-19 19:00:00 21.5 13 Oeste 36 Noroeste 0 923 -0.6 17
2019-05-19 18:00:00 21.4 17 Noroeste 39 Noroeste 0 923 -0.8 15
2019-05-19 17:00:00 20.9 13 Oeste 37 Noroeste 0 923.5 -0.5 16
2019-05-19 16:00:00 21.6 10 Oeste 30 Noroeste 0 923.6 -0.7 22
2019-05-19 15:00:00 19.9 5 Norte 32 Norte 0 923.8 -0.5 23
2019-05-19 14:00:00 20.1 6 Sudoeste 26 Oeste 0 924 -0.4 25
2019-05-19 13:00:00 17.1 7 Sur 22 Sudoeste 0 924.3 -0.1 31
2019-05-19 12:00:00 17.3 6 Sur 19 Sur 0 924.3 0.3 31
2019-05-19 11:00:00 16.1 6 Sudeste 16 Sur 0 924.4 0.4 34
2019-05-19 10:00:00 13.3 6 Sur 12 Este 0 924.4 0.9 42
2019-05-19 09:00:00 11 3 Este 7 Este 0 924 0.9 47
2019-05-19 08:00:00 9.5 3 Nordeste 7 Sudeste 0 924 0.9 51
2019-05-19 07:00:00 9.8 3 Noroeste 10 Sudoeste 0 923.5 0.3 46
2019-05-19 06:00:00 10.4 3 Sur 8 Sur 0 923.1 -0.3 42
2019-05-19 05:00:00 11.6 7 Noroeste 21 Noroeste 0 923.1 -0.7 37
2019-05-19 04:00:00 11.7 7 Noroeste 22 Norte 0 923.2 -0.9 35
2019-05-19 03:00:00 12.2 11 Noroeste 24 Noroeste 0 923.4 -1 33
2019-05-19 02:00:00 12.5 14 Noroeste 26 Noroeste 0 923.8 -0.6 31
2019-05-19 01:00:00 12.6 17 Noroeste 25 Oeste 0 924.1 0.2 29
2019-05-19 00:00:00 12.7 14 Oeste 24 Noroeste 0 924.4 0.7 28
2019-05-18 23:00:00 13.1 11 Oeste 19 Oeste 0 924.4 1.3 28
2019-05-18 22:00:00 14.1 9 Oeste 26 Oeste 0 923.9 1.1 27
2019-05-18 21:00:00 16 14 Oeste 29 Oeste 0 923.7 1.2 23
2019-05-18 20:00:00 19 12 Oeste 32 Noroeste 0 923.1 1 20
2019-05-18 19:00:00 19.6 16 Noroeste 36 Noroeste 0 922.8 0.4 17
2019-05-18 18:00:00 18.7 19 Oeste 40 Noroeste 0 922.5 0 17
2019-05-18 17:00:00 18.5 24 Noroeste 42 Noroeste 0 922.1 -0.4 14
2019-05-18 16:00:00 18.7 18 Noroeste 40 Noroeste 0 922.4 -0.4 15
2019-05-18 15:00:00 17.9 14 Noroeste 47 Noroeste 0 922.5 -0.4 19
2019-05-18 14:00:00 18 12 Oeste 28 Noroeste 0 922.5 -0.3 21
2019-05-18 13:00:00 16.2 10 Noroeste 24 Noroeste 0 922.8 -0.1 33
2019-05-18 12:00:00 15.5 8 Oeste 25 Noroeste 0 922.9 0.4 38
2019-05-18 11:00:00 14.1 6 Oeste 15 Sudoeste 0 922.8 0.2 44
2019-05-18 10:00:00 12.6 6 Oeste 12 Sudoeste 0 922.9 0.9 53
2019-05-18 09:00:00 10.6 4 Oeste 10 Oeste 0 922.5 1 57
2019-05-18 08:00:00 10.1 4 Sudoeste 10 Sur 0 922.6 0.9 56
2019-05-18 07:00:00 10.5 2 Sudoeste 10 Sur 0 922 -0.2 52
2019-05-18 06:00:00 11.2 6 Sur 22 Noroeste 0 921.5 -1.4 47
2019-05-18 05:00:00 11.3 11 Noroeste 26 Noroeste 0 921.7 -1.7 44
2019-05-18 04:00:00 11.5 18 Noroeste 30 Oeste 0 922.2 -1.3 42
2019-05-18 03:00:00 12 17 Oeste 30 Oeste 0 922.9 -0.9 40
2019-05-18 02:00:00 12.3 15 Oeste 26 Noroeste 0 923.4 -0.5 38
2019-05-18 01:00:00 12.4 10 Oeste 20 Oeste 0 923.5 0 37
2019-05-18 00:00:00 12.9 9 Oeste 25 Noroeste 0 923.8 0.8 36
2019-05-17 23:00:00 13.7 13 Oeste 32 Oeste 0 923.9 1.2 34
2019-05-17 22:00:00 14.1 13 Oeste 27 Oeste 0 923.5 0.9 35
2019-05-17 21:00:00 15.8 13 Noroeste 29 Noroeste 0 923 0.2 32
2019-05-17 20:00:00 18.4 19 Noroeste 32 Noroeste 0 922.7 -0.1 26
2019-05-17 19:00:00 20.1 12 Oeste 30 Noroeste 0 922.6 -0.6 23
2019-05-17 18:00:00 19.1 20 Noroeste 33 Noroeste 0 922.8 -0.4 25
2019-05-17 17:00:00 19.3 14 Noroeste 31 Noroeste 0 922.8 -0.6 26
2019-05-17 16:00:00 18.6 16 Noroeste 37 Noroeste 0 923.2 -0.2 27
2019-05-17 15:00:00 18.3 17 Noroeste 32 Noroeste 0 923.2 -0.2 28
2019-05-17 14:00:00 18.3 12 Noroeste 32 Noroeste 0 923.4 0.1 30
2019-05-17 13:00:00 15.2 15 Oeste 36 Oeste 0 923.4 0.1 35
2019-05-17 12:00:00 14.7 17 Noroeste 36 Oeste 0 923.4 0 37
2019-05-17 11:00:00 13.6 15 Oeste 32 Oeste 0 923.3 0.3 42
2019-05-17 10:00:00 11.5 12 Oeste 27 Oeste 0 923.3 1.1 53
2019-05-17 09:00:00 9.5 9 Oeste 24 Oeste 0 923.4 1.7 62
2019-05-17 08:00:00 8.7 11 Oeste 22 Oeste 0 923 1.5 66
2019-05-17 07:00:00 9 10 Sudoeste 24 Oeste 0 922.2 1.2 65
2019-05-17 06:00:00 9.7 10 Oeste 27 Noroeste 0 921.7 0.6 62
2019-05-17 05:00:00 10.7 14 Oeste 30 Oeste 0 921.5 0.5 59
2019-05-17 04:00:00 11.8 16 Oeste 38 Noroeste 0 921 0 54
2019-05-17 03:00:00 12.8 8 Oeste 35 Oeste 0 921.1 0.4 55
2019-05-17 02:00:00 14.2 21 Oeste 45 Noroeste 0 921 0.5 53
2019-05-17 01:00:00 16.8 20 Noroeste 43 Noroeste 0 921 1.1 46
2019-05-17 00:00:00 18.5 14 Oeste 28 Oeste 0 920.7 1.1 29
2019-05-16 23:00:00 20.4 12 Oeste 39 Sudoeste 0 920.5 1.1 27
2019-05-16 22:00:00 21.8 20 Sudoeste 42 Sudoeste 0 919.9 0.3 34
2019-05-16 21:00:00 23.7 14 Sudoeste 50 Sudoeste 0 919.6 -0.4 28
2019-05-16 20:00:00 26.7 16 Sudoeste 56 Sudoeste 0 919.4 -1.2 25
2019-05-16 19:00:00 28.4 17 Sudoeste 45 Sudoeste 0 919.6 -1.7 21
2019-05-16 18:00:00 28.9 16 Sudoeste 46 Sudoeste 0 920 -1.8 19
2019-05-16 17:00:00 28.8 20 Sudoeste 45 Sudoeste 0 920.6 -1.6 15
2019-05-16 16:00:00 29.3 15 Sudoeste 44 Sudoeste 0 921.3 -1.5 15
2019-05-16 15:00:00 28.6 17 Sudoeste 40 Sudoeste 0 921.8 -1.2 19
2019-05-16 14:00:00 27.9 17 Sur 44 Sudoeste 0 922.2 -1 23
2019-05-16 13:00:00 27.3 14 Sur 36 Sudoeste 0 922.8 -0.5 23
2019-05-16 12:00:00 25.7 12 Sudoeste 29 Sudoeste 0 923 -0.3 28
2019-05-16 11:00:00 24.3 10 Sudoeste 26 Sudoeste 0 923.2 -0.1 30
2019-05-16 10:00:00 21.9 10 Sudoeste 21 Sudoeste 0 923.3 0.2 37
2019-05-16 09:00:00 18.7 4 Sur 9 Sudoeste 0 923.3 0.1 48
2019-05-16 08:00:00 16.9 2 Oeste 5 Oeste 0 923.3 0.1 52
2019-05-16 07:00:00 16.5 3 Noroeste 5 Noroeste 0 923.1 -0.1 49
2019-05-16 06:00:00 16.8 4 Norte 8 Sur 0 923.2 -0.4 47
2019-05-16 05:00:00 18 2 Este 13 Sur 0 923.2 -0.8 46
2019-05-16 04:00:00 19.8 11 Sudoeste 18 Sudoeste 0 923.2 -0.9 41
2019-05-16 03:00:00 20.4 8 Sudoeste 17 Sudoeste 0 923.6 -0.7 39
2019-05-16 02:00:00 21.5 6 Sudoeste 16 Sudoeste 0 924 -0.3 35
2019-05-16 01:00:00 22.2 9 Sudoeste 17 Oeste 0 924.1 0.1 31
2019-05-16 00:00:00 23.3 10 Oeste 19 Oeste 0 924.3 0.5 26
2019-05-15 23:00:00 23.7 11 Oeste 17 Sudoeste 0 924.3 0.8 28
2019-05-15 22:00:00 25.3 10 Sudoeste 20 Sudoeste 0 924 0.5 27
2019-05-15 21:00:00 28.1 8 Sudoeste 16 Sudoeste 0 923.8 0.3 22
2019-05-15 20:00:00 29.7 11 Noroeste 23 Noroeste 0 923.5 -0.3 12
2019-05-15 19:00:00 31.3 13 Noroeste 35 Oeste 0 923.5 -0.6 9
2019-05-15 18:00:00 31.7 6 Sur 28 Sudoeste 0 923.5 -1.4 18
2019-05-15 17:00:00 31.3 12 Sudoeste 31 Sudoeste 0 923.8 -1.7 19
2019-05-15 16:00:00 31.4 12 Sur 33 Sur 0 924.1 -1.9 19
2019-05-15 15:00:00 30.2 11 Sur 26 Sur 0 924.9 -1.3 20
2019-05-15 14:00:00 28.3 10 Sur 27 Sur 0 925.5 -0.9 23
2019-05-15 13:00:00 26.6 9 Sur 22 Sur 0 926 -0.4 26
2019-05-15 12:00:00 24.9 7 Sudeste 20 Sur 0 926.2 0.1 27
2019-05-15 11:00:00 22.7 5 Sur 14 Sudoeste 0 926.4 0.3 31
2019-05-15 10:00:00 20 7 Sudoeste 14 Sudoeste 0 926.4 0.5 31
2019-05-15 09:00:00 16.4 3 Sudoeste 8 Sur 0 926.1 0.3 38
2019-05-15 08:00:00 14.8 5 Sudoeste 8 Sudoeste 0 926.1 0.1 38
2019-05-15 07:00:00 14.9 2 Oeste 8 Sudoeste 0 925.9 -0.2 40
2019-05-15 06:00:00 15.8 5 Sur 11 Sudoeste 0 925.8 -0.6 37
2019-05-15 05:00:00 16.1 4 Sudoeste 12 Sudoeste 0 926 -0.7 37
2019-05-15 04:00:00 16.7 4 Sudoeste 7 Sudoeste 0 926.1 -0.9 36
2019-05-15 03:00:00 17.5 4 Sudoeste 10 Sur 0 926.4 -0.7 34
2019-05-15 02:00:00 19 5 Sur 12 Sudoeste 0 926.7 -0.5 32
2019-05-15 01:00:00 20.4 7 Oeste 23 Oeste 0 927 0 28
2019-05-15 00:00:00 20.9 13 Oeste 25 Oeste 0 927.1 0.3 27
2019-05-14 23:00:00 21.8 10 Oeste 21 Oeste 0 927.2 0.6 28
2019-05-14 22:00:00 23.3 8 Sudoeste 17 Sudoeste 0 927 0.2 27
2019-05-14 21:00:00 25.9 8 Sudoeste 17 Sur 0 926.8 -0.3 23
2019-05-14 20:00:00 29.6 8 Sudoeste 19 Sur 0 926.6 -0.8 18
2019-05-14 19:00:00 30.1 8 Sudoeste 24 Sur 0 926.8 -1.1 16
2019-05-14 18:00:00 29.2 8 Sur 25 Sur 0 927.1 -1.4 17
2019-05-14 17:00:00 29.3 7 Sudoeste 22 Sudoeste 0 927.4 -1.6 17
2019-05-14 16:00:00 28.7 6 Sudeste 19 Este 0 927.9 -1.6 19
2019-05-14 15:00:00 27.7 6 Sur 17 Sur 0 928.5 -1.4 19
2019-05-14 14:00:00 26.2 6 Sur 19 Sudoeste 0 929 -0.9 21
2019-05-14 13:00:00 24.9 4 Sur 15 Sur 0 929.5 -0.3 24
2019-05-14 12:00:00 22.9 7 Sudeste 16 Sur 0 929.9 0.2 24
2019-05-14 11:00:00 20.9 6 Sudeste 17 Sudeste 0 929.9 0.1 27
2019-05-14 10:00:00 18.1 6 Sudeste 15 Sudeste 0 929.8 0.4 28
2019-05-14 09:00:00 14.5 3 Norte 7 Norte 0 929.7 0.5 52
2019-05-14 08:00:00 13.4 3 Nordeste 7 Nordeste 0 929.8 0.7 58
2019-05-14 07:00:00 13.4 2 Nordeste 9 Este 0 929.4 0.2 58
2019-05-14 06:00:00 14 2 Nordeste 11 Este 0 929.2 -0.1 59
2019-05-14 05:00:00 14.8 6 Este 13 Este 0 929.1 -0.2 58
2019-05-14 04:00:00 15.5 6 Este 11 Este 0 929.2 -0.1 54
2019-05-14 03:00:00 16.5 3 Nordeste 10 Este 0 929.3 0.3 51
2019-05-14 02:00:00 17.8 3 Nordeste 17 Este 0 929.3 0.6 45
2019-05-14 01:00:00 19.3 8 Este 21 Este 0 929.3 0.9 39
2019-05-14 00:00:00 19.8 6 Nordeste 21 Norte 0 929 0.7 30
2019-05-13 23:00:00 21 12 Nordeste 24 Nordeste 0 928.7 0.8 19
2019-05-13 22:00:00 22.9 12 Nordeste 26 Nordeste 0 928.4 0.6 13
2019-05-13 21:00:00 24.7 10 Nordeste 26 Nordeste 0 928.3 0.4 12
2019-05-13 20:00:00 27 14 Norte 31 Nordeste 0 927.9 -0.2 11
2019-05-13 19:00:00 28.2 13 Norte 29 Noroeste 0 927.8 -0.7 12
2019-05-13 18:00:00 29.2 12 Norte 33 Norte 0 927.9 -0.9 11
2019-05-13 17:00:00 29.1 17 Norte 33 Nordeste 0 928.1 -1.3 9
2019-05-13 16:00:00 29.2 15 Norte 34 Norte 0 928.5 -1.6 9
2019-05-13 15:00:00 28.6 18 Norte 37 Nordeste 0 928.8 -1.8 11
2019-05-13 14:00:00 27.6 13 Norte 31 Norte 0 929.4 -1.4 11
2019-05-13 13:00:00 26.9 9 Norte 24 Norte 0 930.1 -0.9 12
2019-05-13 12:00:00 24.9 6 Nordeste 19 Nordeste 0 930.6 -0.3 15
2019-05-13 11:00:00 22.1 10 Nordeste 20 Nordeste 0 930.8 0 16
2019-05-13 10:00:00 19 8 Nordeste 31 Norte 0 931 0.4 21
2019-05-13 09:00:00 15.7 20 Norte 32 Nordeste 0 930.9 0.2 23
2019-05-13 08:00:00 13.7 14 Nordeste 25 Nordeste 0 930.8 0 26
2019-05-13 07:00:00 13.9 13 Nordeste 27 Nordeste 0 930.6 -0.5 23
2019-05-13 06:00:00 14.7 11 Nordeste 24 Norte 0 930.7 -0.7 21
2019-05-13 05:00:00 16.3 13 Nordeste 24 Nordeste 0 930.8 -0.9 18
2019-05-13 04:00:00 16.4 14 Nordeste 27 Norte 0 931.1 -0.9 17
2019-05-13 03:00:00 18 16 Nordeste 26 Nordeste 0 931.4 -0.7 15
2019-05-13 02:00:00 19.1 13 Nordeste 24 Norte 0 931.7 -0.5 14
2019-05-13 01:00:00 18.8 7 Nordeste 18 Nordeste 0 932 -0.1 14
2019-05-13 00:00:00 18.9 8 Nordeste 26 Nordeste 0 932.1 0.1 15
2019-05-12 23:00:00 20.6 18 Norte 28 Norte 0 932.2 0.4 14
2019-05-12 22:00:00 21.8 13 Nordeste 23 Norte 0 932.1 0.3 14
2019-05-12 21:00:00 24.1 10 Norte 23 Norte 0 932 0 15
2019-05-12 20:00:00 26.6 15 Norte 30 Norte 0 931.8 -0.6 14
2019-05-12 19:00:00 27.3 15 Nordeste 31 Norte 0 931.8 -1.1 15
2019-05-12 18:00:00 28.3 14 Norte 28 Norte 0 932 -1.3 15
2019-05-12 17:00:00 28.4 14 Norte 31 Nordeste 0 932.4 -1.4 17
2019-05-12 16:00:00 28.4 13 Norte 31 Norte 0 932.9 -1.4 18
2019-05-12 15:00:00 28.1 9 Norte 25 Norte 0 933.3 -1.2 19
2019-05-12 14:00:00 26.9 9 Norte 24 Nordeste 0 933.8 -0.6 22
2019-05-12 13:00:00 24.9 10 Nordeste 23 Norte 0 934.3 0 33
2019-05-12 12:00:00 22.8 13 Nordeste 25 Norte 0 934.5 0.5 38
2019-05-12 11:00:00 20.7 10 Norte 22 Norte 0 934.4 0.6 47
2019-05-12 10:00:00 17.6 12 Norte 24 Norte 0 934.3 0.8 57
2019-05-12 09:00:00 14.3 13 Nordeste 26 Nordeste 0 934 0.8 67
2019-05-12 08:00:00 13.2 15 Nordeste 36 Norte 0 933.8 0.7 66
2019-05-12 07:00:00 13 18 Nordeste 29 Nordeste 0 933.5 0.6 51
2019-05-12 06:00:00 14.1 14 Nordeste 29 Nordeste 0 933.2 0.4 43
2019-05-12 05:00:00 15.7 15 Nordeste 27 Nordeste 0 933.1 -0.2 37
2019-05-12 04:00:00 17.2 14 Nordeste 25 Nordeste 0 932.9 -0.4 31
2019-05-12 03:00:00 18.5 8 Nordeste 20 Nordeste 0 932.8 -0.3 28
2019-05-12 02:00:00 18.7 6 Nordeste 17 Norte 0 933.3 0.3 28
2019-05-12 01:00:00 19.5 9 Nordeste 15 Nordeste 0 933.3 1.1 26
2019-05-12 00:00:00 19.9 4 Norte 14 Nordeste 0 933.1 1.4 30
2019-05-11 23:00:00 20.8 5 Norte 16 Nordeste 0 933 1.7 31
2019-05-11 22:00:00 22.4 7 Nordeste 18 Nordeste 0 932.2 1 29
2019-05-11 21:00:00 24.5 7 Nordeste 19 Norte 0 931.7 0.8 28
2019-05-11 20:00:00 26.8 14 Norte 28 Nordeste 0 931.3 0.5 24
2019-05-11 19:00:00 28.4 11 Norte 30 Nordeste 0 931.2 0.1 22
2019-05-11 18:00:00 28.1 15 Nordeste 33 Nordeste 0 930.9 -0.5 20
2019-05-11 17:00:00 28.5 17 Norte 36 Norte 0 930.8 -0.7 22
2019-05-11 16:00:00 28.4 10 Norte 28 Norte 0 931.1 -0.7 24
2019-05-11 15:00:00 28 6 Norte 17 Norte 0 931.4 -0.5 26
2019-05-11 14:00:00 26.2 5 Oeste 20 Norte 0 931.5 -0.4 30
2019-05-11 13:00:00 24.8 8 Norte 21 Noroeste 0 931.8 -0.2 36
2019-05-11 12:00:00 23.5 4 Este 17 Norte 0 931.9 0.4 41
2019-05-11 11:00:00 21.2 6 Norte 20 Norte 0 931.9 0.8 52
2019-05-11 10:00:00 19.1 8 Norte 19 Norte 0 932 1.3 60
2019-05-11 09:00:00 16.4 9 Nordeste 16 Norte 0 931.5 1.2 67
2019-05-11 08:00:00 14.9 7 Norte 12 Norte 0 931.1 0.9 72
2019-05-11 07:00:00 14.4 9 Norte 15 Nordeste 0 930.7 0.5 74
2019-05-11 06:00:00 14.9 6 Nordeste 10 Nordeste 0 930.3 0.2 72
2019-05-11 05:00:00 14.5 6 Nordeste 13 Nordeste 0 930.2 0.1 73
2019-05-11 04:00:00 15.3 5 Nordeste 12 Nordeste 0 930.2 0.1 69
2019-05-11 03:00:00 16.2 4 Nordeste 13 Nordeste 0 930.1 -0.1 65
2019-05-11 02:00:00 16.8 7 Nordeste 18 Nordeste 0 930.1 0.1 63
2019-05-11 01:00:00 17.6 12 Norte 20 Norte 0 930.1 0.9 59
2019-05-11 00:00:00 18.4 12 Norte 21 Norte 0 930.2 1.7 56
2019-05-10 23:00:00 19.3 11 Norte 21 Noroeste 0 930 2.1 51
2019-05-10 22:00:00 20.5 14 Noroeste 24 Noroeste 0 929.2 1.3 46
2019-05-10 21:00:00 23.2 10 Noroeste 20 Noroeste 0 928.5 0.7 33
2019-05-10 20:00:00 27.1 9 Oeste 23 Oeste 0 927.9 -0.1 22
2019-05-10 19:00:00 27.5 8 Oeste 26 Oeste 0 927.9 -0.5 25
2019-05-10 18:00:00 27 5 Sudoeste 27 Oeste 0 927.8 -0.9 29
2019-05-10 17:00:00 27 8 Sur 28 Sudoeste 0 928 -1 31
2019-05-10 16:00:00 27.1 7 Sudoeste 24 Sudoeste 0 928.4 -0.8 31
2019-05-10 15:00:00 25.6 10 Sur 25 Sudoeste 0 928.7 -0.6 38
2019-05-10 14:00:00 24.1 7 Sudoeste 21 Sudoeste 0 929 -0.3 43
2019-05-10 13:00:00 23.3 5 Sur 19 Sudoeste 0 929.2 0.2 50
2019-05-10 12:00:00 21.4 6 Sur 17 Sur 0 929.3 0.5 56
2019-05-10 11:00:00 18.9 3 Oeste 8 Noroeste 0 929.3 0.7 68
2019-05-10 10:00:00 16.7 5 Norte 12 Norte 0 929 0.9 78
2019-05-10 09:00:00 14.4 2 Norte 6 Norte 0 928.8 0.7 85
2019-05-10 08:00:00 14.1 2 Este 11 Este 0 928.6 0.4 86
2019-05-10 07:00:00 13.4 3 Nordeste 8 Nordeste 0 928.1 -0.1 86
2019-05-10 06:00:00 13.7 2 Norte 5 Este 0 928.1 -0.3 85
2019-05-10 05:00:00 13.7 4 Nordeste 8 Nordeste 0 928.2 -0.4 84
2019-05-10 04:00:00 14.1 3 Sur 8 Sur 0 928.2 -0.6 83
2019-05-10 03:00:00 14.5 6 Sudoeste 8 Sur 0 928.4 -0.2 82
2019-05-10 02:00:00 15 5 Sur 10 Sudoeste 0 928.6 0 79
2019-05-10 01:00:00 15.7 3 Sudoeste 10 Sudoeste 0 928.8 0.5 76
2019-05-10 00:00:00 16.2 5 Sudoeste 17 Sudoeste 0 928.6 0.8 74
2019-05-09 23:00:00 17 7 Sudoeste 13 Sudoeste 0 928.6 1 70
2019-05-09 22:00:00 17.9 5 Sudoeste 11 Sudoeste 0 928.3 0.4 67
2019-05-09 21:00:00 18.7 5 Sudoeste 15 Sudoeste 0 927.8 -0.4 64
2019-05-09 20:00:00 20.6 5 Sudoeste 18 Sudoeste 0 927.6 -0.9 58
2019-05-09 19:00:00 20.6 8 Sudoeste 17 Sur 0 927.9 -1.2 60
2019-05-09 18:00:00 19.6 5 Sudoeste 21 Sudoeste 0 928.2 -0.8 65
2019-05-09 17:00:00 19.5 10 Sudoeste 24 Sur 0 928.5 -0.5 61
2019-05-09 16:00:00 19.6 8 Oeste 23 Sur 0 929.1 -0.2 62
2019-05-09 15:00:00 19 10 Sudoeste 25 Sur 0 929 -0.3 65
2019-05-09 14:00:00 17.7 5 Sur 18 Sur 0 929 -0.2 75
2019-05-09 13:00:00 15.8 8 Sur 20 Sur 0 929.3 0.3 80
2019-05-09 12:00:00 14.7 8 Sur 18 Sudoeste 0 929.3 0.6 84
2019-05-09 11:00:00 13.7 5 Sudoeste 17 Sudoeste 0 929.2 0.9 87
2019-05-09 10:00:00 13.2 6 Sudoeste 15 Oeste 0 929 1 86
2019-05-09 09:00:00 12.8 7 Oeste 17 Oeste 0 928.7 0.9 84
2019-05-09 08:00:00 12.5 5 Sudoeste 15 Sudoeste 0 928.3 0.5 84
2019-05-09 07:00:00 12.7 4 Sudoeste 13 Sur 0 928 0.1 81
2019-05-09 06:00:00 12.9 6 Sur 15 Sur 0 927.8 -0.3 77
2019-05-09 05:00:00 13.2 6 Sudoeste 15 Sudoeste 0 927.8 -0.4 75
2019-05-09 04:00:00 13.4 10 Sudoeste 21 Sudoeste 0 927.9 -0.5 73
2019-05-09 03:00:00 13.7 9 Sudoeste 25 Sudoeste 0 928.1 -0.2 75
2019-05-09 02:00:00 13.7 10 Sudoeste 24 Sudoeste 0 928.2 0.1 80
2019-05-09 01:00:00 14.6 13 Sudoeste 28 Sudoeste 0 928.4 0.7 82
2019-05-09 00:00:00 15.7 11 Sudoeste 28 Oeste 0 928.3 1 76
2019-05-08 23:00:00 16.3 13 Sudoeste 33 Sudoeste 0 928.1 0.9 68
2019-05-08 22:00:00 16.4 14 Sudoeste 32 Sudoeste 0 927.7 0.4 66
2019-05-08 21:00:00 16.9 10 Sudoeste 27 Sudoeste 0 927.3 -0.1 65
2019-05-08 20:00:00 17.3 10 Sudoeste 27 Sudoeste 0 927.2 -0.5 65
2019-05-08 19:00:00 17.9 12 Sudoeste 30 Sudoeste 0 927.3 -0.7 62
2019-05-08 18:00:00 19.2 13 Oeste 31 Oeste 0 927.4 -0.6 58
2019-05-08 17:00:00 18.7 13 Sudoeste 35 Sudoeste 0 927.7 -0.5 59
2019-05-08 16:00:00 18.6 16 Sudoeste 39 Sudoeste 0 928 -0.7 56
2019-05-08 15:00:00 18.8 15 Sudoeste 46 Sudoeste 0 928 -0.7 57
2019-05-08 14:00:00 18.5 18 Sudoeste 45 Sudoeste 0 928.2 -0.4 61
2019-05-08 13:00:00 17.6 21 Sudoeste 46 Sudoeste 0 928.7 0.5 64
2019-05-08 12:00:00 16.5 16 Sudoeste 40 Sudoeste 0 928.7 0.7 72
2019-05-08 11:00:00 15.1 11 Sudoeste 31 Sudoeste 0 928.6 0.4 79
2019-05-08 10:00:00 14.4 7 Sur 19 Sur 0 928.2 0.4 81
2019-05-08 09:00:00 14 8 Sur 16 Sur 0 928 0.2 83
2019-05-08 08:00:00 12.7 3 Sur 13 Sudoeste 0 928.2 0.4 81
2019-05-08 07:00:00 13 5 Sur 14 Sudoeste 0 927.8 0 79
2019-05-08 06:00:00 13.6 6 Sudoeste 13 Sudoeste 0 927.8 -0.2 75
2019-05-08 05:00:00 14 5 Sur 13 Oeste 0 927.8 -0.9 71
2019-05-08 04:00:00 14.1 8 Sudoeste 13 Sudoeste 0 927.8 -1.2 71
2019-05-08 03:00:00 15.6 6 Sudeste 12 Oeste 0 928 -1.1 61
2019-05-08 02:00:00 16.5 6 Sudoeste 13 Oeste 0 928.7 -0.3 56
2019-05-08 01:00:00 17.3 4 Oeste 18 Sudoeste 0 929 0.6 50
2019-05-08 00:00:00 18.1 8 Sudoeste 14 Sudoeste 0 929.1 1 45
2019-05-07 23:00:00 18.7 7 Oeste 16 Sudoeste 0 929 1.3 41
2019-05-07 22:00:00 19.7 9 Sudoeste 18 Sudoeste 0 928.4 0.5 36
2019-05-07 21:00:00 21.3 5 Sur 23 Sudoeste 0 928.1 0 31
2019-05-07 20:00:00 23.7 7 Sur 24 Sudoeste 0 927.7 -0.8 29
2019-05-07 19:00:00 25.8 9 Sudoeste 25 Sur 0 927.9 -1.2 26
2019-05-07 18:00:00 25.4 8 Sur 24 Sudoeste 0 928.1 -1.7 28
2019-05-07 17:00:00 25.3 9 Sudoeste 24 Oeste 0 928.5 -1.8 29
2019-05-07 16:00:00 25 8 Sudoeste 22 Sur 0 929.1 -1.6 31
2019-05-07 15:00:00 23.5 6 Sur 22 Sudoeste 0 929.8 -1.2 34
2019-05-07 14:00:00 22.2 9 Sudoeste 25 Sur 0 930.3 -0.6 39
2019-05-07 13:00:00 20.9 9 Sudoeste 24 Sur 0 930.7 -0.3 45
2019-05-07 12:00:00 19.1 8 Sur 20 Sur 0 931 0 59
2019-05-07 11:00:00 17.1 6 Sur 16 Sur 0 930.9 0.4 65
2019-05-07 10:00:00 14.5 3 Sur 11 Sur 0 931 0.7 77
2019-05-07 09:00:00 12 2 Oeste 5 Norte 0 931 0.4 83
2019-05-07 08:00:00 10.9 2 Norte 7 Este 0 930.5 0 81
2019-05-07 07:00:00 10.8 3 Norte 5 Nordeste 0 930.3 -0.3 78
2019-05-07 06:00:00 11.5 2 Este 6 Sudeste 0 930.6 -0.3 75
2019-05-07 05:00:00 12.1 4 Nordeste 9 Sudeste 0 930.5 -0.5 71
2019-05-07 04:00:00 12.9 4 Sur 13 Oeste 0 930.6 -0.4 68
2019-05-07 03:00:00 13.5 6 Sudoeste 12 Sudoeste 0 930.9 -0.1 64
2019-05-07 02:00:00 14.4 6 Sudoeste 14 Sudoeste 0 931 0 63
2019-05-07 01:00:00 15.6 10 Sudoeste 20 Oeste 0 931 0.4 58
2019-05-07 00:00:00 16.2 12 Oeste 20 Oeste 0 931 1.1 56
2019-05-06 23:00:00 16.9 11 Sudoeste 22 Sudoeste 0 931 1.6 52
2019-05-06 22:00:00 17.8 12 Sudoeste 22 Sur 0 930.6 1.1 50
2019-05-06 21:00:00 20 10 Sudoeste 23 Sudoeste 0 929.9 0.5 48
2019-05-06 20:00:00 23.1 12 Sudoeste 26 Sudoeste 0 929.4 -0.2 41
2019-05-06 19:00:00 23.2 12 Sudoeste 26 Sudoeste 0 929.5 -0.6 39
2019-05-06 18:00:00 23.5 11 Sudoeste 26 Sudoeste 0 929.4 -1 37
2019-05-06 17:00:00 24.3 11 Sudoeste 28 Sudoeste 0 929.6 -0.9 37
2019-05-06 16:00:00 24.4 11 Sudoeste 26 Sudoeste 0 930.1 -1 37
2019-05-06 15:00:00 23.5 10 Sudoeste 32 Sur 0 930.4 -1 39
2019-05-06 14:00:00 22.6 10 Sur 26 Sur 0 930.5 -0.8 49
2019-05-06 13:00:00 20.5 8 Sur 19 Sur 0 931.1 -0.1 59
2019-05-06 12:00:00 18.4 6 Sur 15 Sudeste 0 931.4 0.4 65
2019-05-06 11:00:00 15.6 4 Sur 12 Oeste 0 931.3 0.7 76
2019-05-06 10:00:00 13.6 4 Sur 9 Sur 0 931.2 1.1 83
2019-05-06 09:00:00 12.7 4 Sudeste 9 Sur 0 931 1.3 85
2019-05-06 08:00:00 12.3 3 Sudeste 5 Sudeste 0 930.6 1.1 87
2019-05-06 07:00:00 12 3 Noroeste 5 Oeste 0 930.1 0.9 86
2019-05-06 06:00:00 12 0 Calma 8 Sudeste 0 929.7 0.4 86
2019-05-06 05:00:00 11.9 4 Sudeste 10 Sur 0 929.5 0.1 84
2019-05-06 04:00:00 12.5 5 Sur 12 Sudoeste 0 929.2 0 83
2019-05-06 03:00:00 13.4 5 Sudeste 17 Sudoeste 0 929.3 0.1 81
2019-05-06 02:00:00 14.3 10 Sudoeste 24 Sudoeste 0 929.4 0.4 78
2019-05-06 01:00:00 15.3 13 Sudoeste 25 Sudoeste 0 929.2 0.6 72
2019-05-06 00:00:00 16.1 13 Sudoeste 23 Sudoeste 0 929.2 1.2 66
2019-05-05 23:00:00 16.9 13 Sudoeste 25 Sudoeste 0 929 1.3 60
2019-05-05 22:00:00 17.5 10 Sudoeste 22 Sudoeste 0 928.6 1 55
2019-05-05 21:00:00 19.4 11 Sudoeste 26 Sudoeste 0 928 0.4 50
2019-05-05 20:00:00 22.5 13 Sudoeste 31 Sudoeste 0 927.7 -0.1 42
2019-05-05 19:00:00 23.4 15 Sudoeste 30 Sudoeste 0 927.6 -0.9 43
2019-05-05 18:00:00 23.4 12 Sudoeste 27 Sudoeste 0 927.6 -1.3 45
2019-05-05 17:00:00 22.8 12 Sur 30 Sur 0 927.8 -1.3 48
2019-05-05 16:00:00 21.8 13 Sur 30 Sudoeste 0 928.5 -0.9 50
2019-05-05 15:00:00 20.8 12 Sur 26 Sur 0 928.9 -0.3 52
2019-05-05 14:00:00 19.5 7 Sur 22 Sur 0 929.1 0.6 59
2019-05-05 13:00:00 17 9 Sur 22 Sur 0 929.4 1.1 66
2019-05-05 12:00:00 16.1 8 Sur 19 Sur 0 929.2 1.3 73
2019-05-05 11:00:00 13.9 6 Sur 14 Sur 0 928.5 1 82
2019-05-05 10:00:00 12.7 6 Sudoeste 14 Sudoeste 0 928.3 1.7 85
2019-05-05 09:00:00 12.3 4 Sudoeste 15 Sudoeste 0 927.9 1.5 87
2019-05-05 08:00:00 12 5 Oeste 11 Oeste 0 927.5 1.1 87
2019-05-05 07:00:00 12.2 3 Sudoeste 9 Sudoeste 0 926.6 0.3 86
2019-05-05 06:00:00 12.4 2 Sudoeste 11 Sur 0 926.4 0 85
2019-05-05 05:00:00 12 4 Sur 11 Sudoeste 0 926.4 -0.2 84
2019-05-05 04:00:00 12.4 3 Sur 12 Sur 0 926.3 -0.2 80
2019-05-05 03:00:00 13.4 6 Sur 13 Sudoeste 0 926.4 0.1 75
2019-05-05 02:00:00 14.3 8 Sudoeste 18 Oeste 0 926.6 0.2 70
2019-05-05 01:00:00 15.2 9 Sudoeste 22 Sudoeste 0 926.5 0.5 64
2019-05-05 00:00:00 16 11 Sudoeste 20 Oeste 0 926.3 0.9 59
2019-05-04 23:00:00 16.8 10 Oeste 17 Sudoeste 0 926.4 1.4 50
2019-05-04 22:00:00 17.4 9 Sudoeste 14 Sudoeste 0 926 0.9 32
2019-05-04 21:00:00 19.6 6 Noroeste 15 Noroeste 0 925.4 0.4 26
2019-05-04 20:00:00 22.7 9 Noroeste 25 Noroeste 0 925 0 22
2019-05-04 19:00:00 23 13 Noroeste 26 Oeste 0 925.1 -0.2 19
2019-05-04 18:00:00 22.6 10 Norte 24 Noroeste 0 925 -0.5 21
2019-05-04 17:00:00 23.2 9 Noroeste 29 Oeste 0 925 -0.7 22
2019-05-04 16:00:00 23.3 3 Este 13 Sudeste 0 925.3 -0.8 23
2019-05-04 15:00:00 21.4 3 Norte 15 Nordeste 0 925.5 -0.7 27
2019-05-04 14:00:00 21.1 3 Norte 18 Sur 0 925.7 -0.4 31
2019-05-04 13:00:00 18.8 8 Nordeste 28 Nordeste 0 926.1 0.4 34
2019-05-04 12:00:00 17.5 9 Nordeste 24 Norte 0 926.2 0.8 39
2019-05-04 11:00:00 15.9 10 Nordeste 26 Norte 0 926.1 1.1 42
2019-05-04 10:00:00 13.5 12 Nordeste 24 Nordeste 0 925.7 1.2 52
2019-05-04 09:00:00 10.5 7 Nordeste 19 Norte 0 925.4 1.2 62
2019-05-04 08:00:00 8.8 8 Nordeste 17 Nordeste 0 925 0.9 75
2019-05-04 07:00:00 9.4 6 Nordeste 23 Nordeste 0 924.5 0.5 75
2019-05-04 06:00:00 10.1 13 Nordeste 27 Norte 0 924.2 0.2 75
2019-05-04 05:00:00 10.3 14 Nordeste 29 Nordeste 0 924.1 -0.1 76
2019-05-04 04:00:00 10.5 12 Norte 26 Nordeste 0 924 0 75
2019-05-04 03:00:00 11.7 14 Nordeste 30 Norte 0 924 0.3 68
2019-05-04 02:00:00 12.3 11 Nordeste 42 Nordeste 0 924.2 1 61
2019-05-04 01:00:00 13.7 24 Nordeste 40 Nordeste 0 924 1.8 52
2019-05-04 00:00:00 14.2 12 Nordeste 41 Norte 0 923.7 2.6 42
2019-05-03 23:00:00 15.4 18 Norte 50 Norte 0 923.2 2.6 41
2019-05-03 22:00:00 16.6 26 Norte 50 Norte 0 922.2 1.9 40
2019-05-03 21:00:00 17.8 22 Norte 42 Norte 0 921.1 1.1 41
2019-05-03 20:00:00 19.1 20 Norte 48 Norte 0 920.6 0.7 43
2019-05-03 19:00:00 21.1 16 Norte 48 Norte 0 920.3 0.2 42
2019-05-03 18:00:00 21 22 Norte 49 Norte 0 920 -0.8 41
2019-05-03 17:00:00 21.9 21 Norte 49 Norte 0 919.9 -1.6 40
2019-05-03 16:00:00 24.3 13 Sudoeste 35 Sudoeste 0 920.1 -1.9 33
2019-05-03 15:00:00 24.1 12 Sur 32 Sudoeste 0 920.8 -1.6 37
2019-05-03 14:00:00 22.6 12 Sudoeste 27 Sudoeste 0 921.5 -1.2 40
2019-05-03 13:00:00 21.2 10 Sur 29 Sudoeste 0 922 -0.8 44
2019-05-03 12:00:00 19.8 11 Sudoeste 24 Sudoeste 0 922.4 -0.4 44
2019-05-03 11:00:00 17.9 8 Sudoeste 24 Sudoeste 0 922.7 -0.2 48
2019-05-03 10:00:00 15.6 7 Sudoeste 24 Sudoeste 0 922.8 -0.1 51
2019-05-03 09:00:00 12.7 6 Sur 13 Sur 0 922.8 -0.1 52
2019-05-03 08:00:00 11.6 4 Sudeste 9 Sur 0 922.9 -0.2 56
2019-05-03 07:00:00 11.9 6 Sur 10 Sur 0 922.9 -0.4 56
2019-05-03 06:00:00 12.2 5 Sur 11 Sur 0 922.9 -0.6 54
2019-05-03 05:00:00 12.6 2 Sur 5 Sur 0 923.1 -0.7 55
2019-05-03 04:00:00 13.2 0 Calma 6 Norte 0 923.3 -0.7 59
2019-05-03 03:00:00 13.8 3 Nordeste 15 Sudeste 0 923.5 -0.2 53
2019-05-03 02:00:00 14.6 5 Sudeste 12 Sudeste 0 923.8 0.3 59
2019-05-03 01:00:00 15.7 7 Sudeste 12 Este 0 924 0.9 57
2019-05-03 00:00:00 17 4 Norte 14 Este 0 923.7 1.2 56
2019-05-02 23:00:00 18.4 6 Este 13 Este 0 923.5 1.2 51
2019-05-02 22:00:00 19.5 5 Norte 10 Norte 0 923.1 0.6 48
2019-05-02 21:00:00 20.9 5 Nordeste 12 Nordeste 0 922.5 0.2 44
2019-05-02 20:00:00 22.2 5 Este 27 Noroeste 0 922.3 -0.2 39
2019-05-02 19:00:00 24.2 14 Norte 26 Norte 0 922.5 -0.6 32
2019-05-02 18:00:00 25.1 11 Norte 24 Norte 0 922.3 -1.2 30
2019-05-02 17:00:00 24.7 11 Norte 24 Noroeste 0 922.5 -1.5 36
2019-05-02 16:00:00 23.3 5 Nordeste 21 Norte 0 923.1 -1.3 37
2019-05-02 15:00:00 24.2 8 Norte 26 Norte 0 923.5 -1.3 36
2019-05-02 14:00:00 23.4 11 Norte 23 Nordeste 0 924 -0.7 38
2019-05-02 13:00:00 23.4 9 Norte 19 Norte 0 924.4 0 37
2019-05-02 12:00:00 22.2 5 Sudeste 15 Sudeste 0 924.8 0.8 43
2019-05-02 11:00:00 20.4 5 Sudeste 16 Sudeste 0 924.7 0.8 48
2019-05-02 10:00:00 16.4 5 Nordeste 9 Norte 0 924.4 0.9 61
2019-05-02 09:00:00 14 3 Nordeste 9 Nordeste 0 924 0.3 70
2019-05-02 08:00:00 13.2 5 Norte 8 Norte 0 923.9 0 71
2019-05-02 07:00:00 13.3 5 Norte 19 Sudeste 0 923.5 -1.2 69
2019-05-02 06:00:00 14.4 9 Sudeste 19 Sudeste 0 923.7 -1.4 66
2019-05-02 05:00:00 15.1 13 Norte 33 Norte 0 923.9 -0.9 62
2019-05-02 04:00:00 14.7 18 Norte 50 Nordeste 0 924.7 0.1 74
2019-05-02 03:00:00 15.5 22 Norte 46 Noroeste 0 925.1 0.7 66
2019-05-02 02:00:00 16.9 5 Nordeste 18 Sudeste 0 924.8 0.8 57
2019-05-02 01:00:00 17.8 7 Sudeste 19 Sudeste 0 924.6 1.3 51
2019-05-02 00:00:00 18.9 4 Sudeste 24 Sudeste 0 924.4 1.4 44
2019-05-01 23:00:00 19.9 5 Este 14 Este 0 924 1.4 42
2019-05-01 22:00:00 21 8 Norte 18 Noroeste 0 923.3 0.8 38
2019-05-01 21:00:00 22.6 7 Oeste 16 Noroeste 0 923 0.3 31
2019-05-01 20:00:00 25.3 5 Sur 16 Sudoeste 0 922.6 -0.4 28
2019-05-01 19:00:00 27.9 6 Sur 17 Sudoeste 0 922.5 -1.3 24
2019-05-01 18:00:00 27.2 6 Oeste 18 Oeste 0 922.7 -1.7 20
2019-05-01 17:00:00 27.5 6 Sur 17 Sudeste 0 923 -1.8 24
2019-05-01 16:00:00 27.7 6 Sur 21 Sudeste 0 923.8 -1.6 26
2019-05-01 15:00:00 27 6 Sur 19 Sur 0 924.4 -1.5 30
2019-05-01 14:00:00 25.7 8 Sur 21 Sur 0 924.8 -1 38
2019-05-01 13:00:00 24.4 6 Sur 17 Sur 0 925.4 -0.4 43
2019-05-01 12:00:00 22.7 7 Sudoeste 17 Sudoeste 0 925.9 0.4 41
2019-05-01 11:00:00 20.4 5 Sudoeste 15 Sudoeste 0 925.8 0.6 49
2019-05-01 10:00:00 17.6 6 Sudoeste 12 Oeste 0 925.8 1 58
2019-05-01 09:00:00 14.8 3 Sur 5 Norte 0 925.5 0.7 68
2019-05-01 08:00:00 14 4 Norte 5 Norte 0 925.2 0.4 64
2019-05-01 07:00:00 14.2 2 Norte 10 Sur 0 924.8 -0.4 63
2019-05-01 06:00:00 15 5 Sudeste 10 Sur 0 924.8 -0.7 60
2019-05-01 05:00:00 15.5 6 Sur 12 Sudoeste 0 924.8 -1.1 58
2019-05-01 04:00:00 16.1 4 Sudoeste 6 Sudoeste 0 925.2 -0.8 55
2019-05-01 03:00:00 16.6 3 Norte 11 Sudeste 0 925.5 -0.9 54
2019-05-01 02:00:00 17.6 4 Sur 10 Sur 0 925.9 -0.7 50
2019-05-01 01:00:00 18.9 3 Noroeste 9 Oeste 0 926 -0.3 45
2019-05-01 00:00:00 19.2 4 Noroeste 9 Oeste 0 926.4 0.2 45
2019-04-30 23:00:00 19.7 0 Calma 6 Norte 0 926.6 0.6 44
2019-04-30 22:00:00 20.3 4 Norte 7 Oeste 0 926.3 0.1 48
2019-04-30 21:00:00 22.2 4 Oeste 8 Sudoeste 0 926.2 -0.3 40
2019-04-30 20:00:00 23.7 4 Sudoeste 9 Sudoeste 0 926 -0.6 36
2019-04-30 19:00:00 23.8 4 Sudoeste 12 Sur 0 926.2 -1.1 35
2019-04-30 18:00:00 24.8 5 Sur 20 Sur 0 926.5 -1.1 32
2019-04-30 17:00:00 25.5 8 Sur 20 Sur 0 926.6 -1.5 31
2019-04-30 16:00:00 24 6 Sur 20 Sur 0 927.3 -1.4 34
2019-04-30 15:00:00 25.3 8 Sur 21 Sur 0 927.6 -1.3 34
2019-04-30 14:00:00 22.9 6 Sur 18 Sur 0 928.1 -0.8 40
2019-04-30 13:00:00 22.5 8 Sur 16 Sur 0 928.7 -0.1 41
2019-04-30 12:00:00 20.6 6 Sur 16 Sur 0 928.9 0.1 45
2019-04-30 11:00:00 18.5 7 Sur 14 Sur 0 928.9 0.4 47
2019-04-30 10:00:00 15.9 4 Sur 8 Sur 0 928.8 0.8 59
2019-04-30 09:00:00 13 3 Sudeste 6 Sudoeste 0 928.8 0.9 70
2019-04-30 08:00:00 12 0 Calma 4 Norte 0 928.5 0.7 71
2019-04-30 07:00:00 12.3 4 Oeste 9 Sur 0 928 0 69
2019-04-30 06:00:00 13.3 5 Sur 9 Sudeste 0 927.9 -0.3 65
2019-04-30 05:00:00 14.2 6 Sur 9 Sur 0 927.8 -0.5 62
2019-04-30 04:00:00 15 7 Sudeste 9 Sudeste 0 928 -0.4 57
2019-04-30 03:00:00 15.5 3 Norte 10 Sudeste 0 928.2 -0.2 51
2019-04-30 02:00:00 16.9 4 Noroeste 8 Norte 0 928.3 -0.1 45
2019-04-30 01:00:00 17.1 5 Norte 8 Norte 0 928.4 0.4 42
2019-04-30 00:00:00 18 4 Noroeste 9 Oeste 0 928.4 0.8 45
2019-04-29 23:00:00 18.7 4 Norte 9 Oeste 0 928.4 1.1 45
2019-04-29 22:00:00 19.9 5 Sudoeste 13 Sudoeste 0 928 0.6 40
2019-04-29 21:00:00 21.4 6 Sudoeste 12 Sudoeste 0 927.6 0.2 38
2019-04-29 20:00:00 23.1 6 Sudoeste 12 Oeste 0 927.3 -0.3 34
2019-04-29 19:00:00 24.6 5 Sur 18 Sur 0 927.4 -0.5 33
2019-04-29 18:00:00 24.5 5 Sur 18 Sur 0 927.4 -1 34
2019-04-29 17:00:00 24.1 3 Sur 23 Sur 0 927.6 -1.3 34
2019-04-29 16:00:00 26 9 Sur 26 Sur 0 927.9 -1.6 34
2019-04-29 15:00:00 24.9 6 Sur 16 Sudoeste 0 928.4 -1.4 34
2019-04-29 14:00:00 23.7 6 Sur 18 Sur 0 928.9 -1.1 36
2019-04-29 13:00:00 23 6 Sur 16 Sur 0 929.5 -0.4 34
2019-04-29 12:00:00 19.6 4 Sudeste 11 Sur 0 929.8 -0.1 42
2019-04-29 11:00:00 18.1 4 Sur 8 Sudeste 0 930 0.2 50
2019-04-29 10:00:00 15.1 2 Norte 9 Nordeste 0 929.9 0.4 59
2019-04-29 09:00:00 12.4 3 Este 8 Este 0 929.9 0.6 67
2019-04-29 08:00:00 11.4 2 Norte 6 Este 0 929.8 0.2 66
2019-04-29 07:00:00 11.9 5 Este 8 Sudeste 0 929.5 -0.4 64
2019-04-29 06:00:00 12.9 5 Este 10 Este 0 929.3 -1 61
2019-04-29 05:00:00 13.7 4 Norte 10 Este 0 929.6 -0.9 57
2019-04-29 04:00:00 14.5 4 Sudeste 8 Sudeste 0 929.9 -0.5 55
2019-04-29 03:00:00 15.2 2 Norte 4 Norte 0 930.3 0.1 49
2019-04-29 02:00:00 15.7 2 Nordeste 13 Este 0 930.5 0.1 48
2019-04-29 01:00:00 17 4 Este 17 Nordeste 0 930.4 0.4 42
2019-04-29 00:00:00 17.8 10 Norte 26 Norte 0 930.2 0.5 38
2019-04-28 23:00:00 18.4 11 Norte 22 Nordeste 0 930.4 1.1 35
2019-04-28 22:00:00 19.2 11 Norte 27 Norte 0 930 0.6 36
2019-04-28 21:00:00 21.7 4 Norte 10 Norte 0 929.7 0.1 32
2019-04-28 20:00:00 24.1 8 Norte 19 Nordeste 0 929.3 -0.7 29
2019-04-28 19:00:00 24.6 7 Nordeste 16 Nordeste 0 929.4 -1.3 27
2019-04-28 18:00:00 25.3 4 Nordeste 17 Este 0 929.6 -1.7 26
2019-04-28 17:00:00 25.5 6 Sudeste 21 Sudeste 0 930 -1.9 28
2019-04-28 16:00:00 25.5 6 Este 20 Este 0 930.7 -1.9 26
2019-04-28 15:00:00 24.6 5 Sur 13 Sur 0 931.3 -1.6 30
2019-04-28 14:00:00 23.3 7 Sudeste 16 Sur 0 931.9 -1.1 34
2019-04-28 13:00:00 22.4 4 Sudeste 14 Sudeste 0 932.6 -0.4 37
2019-04-28 12:00:00 20.7 5 Sudeste 15 Este 0 932.9 -0.3 41
2019-04-28 11:00:00 18.1 4 Norte 10 Norte 0 933 -0.2 48
2019-04-28 10:00:00 14.5 4 Norte 9 Nordeste 0 933 -0.1 56
2019-04-28 09:00:00 12.2 5 Norte 8 Norte 0 933.2 0 63
2019-04-28 08:00:00 10.9 5 Norte 8 Noroeste 0 933.2 -0.2 61
2019-04-28 07:00:00 10.6 4 Nordeste 12 Nordeste 0 933.1 -0.5 61
2019-04-28 06:00:00 11.2 6 Nordeste 13 Nordeste 0 933.2 -0.8 58
2019-04-28 05:00:00 11.9 5 Nordeste 10 Norte 0 933.4 -1.2 56
2019-04-28 04:00:00 12.6 4 Nordeste 18 Nordeste 0 933.6 -1.1 53
2019-04-28 03:00:00 13.4 8 Nordeste 19 Norte 0 934 -0.8 49
2019-04-28 02:00:00 14.8 13 Nordeste 27 Nordeste 0 934.6 -0.2 43
2019-04-28 01:00:00 15.6 12 Nordeste 33 Norte 0 934.7 0.3 41
2019-04-28 00:00:00 15.6 15 Norte 32 Norte 0 934.8 0.7 41
2019-04-27 23:00:00 15.6 13 Norte 24 Norte 0 934.8 0.9 43
2019-04-27 22:00:00 16.3 10 Norte 22 Norte 0 934.4 0.5 45
2019-04-27 21:00:00 18.2 10 Norte 19 Norte 0 934.1 0.1 38
2019-04-27 20:00:00 21.5 11 Norte 25 Norte 0 933.9 -0.5 31
2019-04-27 19:00:00 21.8 11 Norte 22 Nordeste 0 933.9 -1.1 28
2019-04-27 18:00:00 22.3 6 Norte 18 Nordeste 0 934 -1.6 28
2019-04-27 17:00:00 22.5 4 Este 16 Nordeste 0 934.4 -1.6 30
2019-04-27 16:00:00 22.5 5 Nordeste 18 Este 0 935 -1.6 29
2019-04-27 15:00:00 21.5 6 Sudeste 18 Este 0 935.6 -1.1 31
2019-04-27 14:00:00 20.2 6 Sur 17 Sur 0 936 -0.6 33
2019-04-27 13:00:00 19.3 6 Sur 19 Este 0 936.6 0 35
2019-04-27 12:00:00 17.6 6 Este 20 Norte 0 936.7 0.2 34
2019-04-27 11:00:00 15.4 8 Nordeste 21 Norte 0 936.6 0.6 38
2019-04-27 10:00:00 12 10 Norte 16 Nordeste 0 936.6 1.1 52
2019-04-27 09:00:00 8.9 8 Nordeste 24 Nordeste 0 936.5 1.2 62
2019-04-27 08:00:00 7.9 13 Nordeste 24 Nordeste 0 936 0.8 62
2019-04-27 07:00:00 8 9 Nordeste 20 Nordeste 0 935.5 0.1 62
2019-04-27 06:00:00 8.6 8 Nordeste 16 Nordeste 0 935.3 -0.8 60
2019-04-27 05:00:00 8.5 6 Nordeste 20 Norte 0 935.2 -1.3 62
2019-04-27 04:00:00 8.7 8 Nordeste 13 Nordeste 0 935.4 -1.2 62
2019-04-27 03:00:00 9.2 6 Nordeste 9 Norte 0 936.1 -0.6 60
2019-04-27 02:00:00 9.4 5 Norte 8 Norte 0 936.5 -0.1 59
2019-04-27 01:00:00 10 5 Nordeste 10 Nordeste 0 936.6 0.5 57
2019-04-27 00:00:00 9.9 6 Nordeste 9 Nordeste 0 936.7 1.3 58
2019-04-26 23:00:00 10.5 5 Norte 6 Norte 0 936.6 1.5 55
2019-04-26 22:00:00 11.5 4 Norte 7 Norte 0 936.1 1.3 52
2019-04-26 21:00:00 13.7 4 Norte 18 Norte 0 935.4 0.9 46
2019-04-26 20:00:00 16.3 8 Norte 22 Norte 0 935.1 0.4 40
2019-04-26 19:00:00 16.8 11 Norte 24 Noroeste 0 934.8 -0.3 38
2019-04-26 18:00:00 17.1 5 Noroeste 18 Norte 0 934.5 -0.9 39
2019-04-26 17:00:00 16.5 5 Norte 18 Norte 0 934.7 -0.7 43
2019-04-26 16:00:00 16.2 4 Nordeste 23 Norte 0 935.1 -0.5 46
2019-04-26 15:00:00 15.6 5 Sur 14 Nordeste 0 935.4 -0.1 50
2019-04-26 14:00:00 15 6 Sudoeste 19 Sudeste 0 935.4 -0.1 55
2019-04-26 13:00:00 13.4 4 Sur 18 Este 0 935.6 0.5 63
2019-04-26 12:00:00 12.9 6 Sudeste 19 Sudeste 0 935.5 0.9 62
2019-04-26 11:00:00 11.1 3 Nordeste 13 Norte 0 935.5 1.6 68
2019-04-26 10:00:00 8.1 5 Norte 11 Nordeste 0 935.1 1.8 81
2019-04-26 09:00:00 5.2 4 Norte 9 Noroeste 0 934.6 1.6 86
2019-04-26 08:00:00 4.2 3 Noroeste 10 Sudeste 0 933.9 1 85
2019-04-26 07:00:00 4.6 4 Sur 6 Sudeste 0 933.3 0.6 84
2019-04-26 06:00:00 5.1 3 Oeste 13 Sudoeste 0 933 0.4 82
2019-04-26 05:00:00 6.1 9 Oeste 16 Oeste 0 932.9 0.4 80
2019-04-26 04:00:00 6.1 8 Oeste 16 Oeste 0 932.7 0.6 81
2019-04-26 03:00:00 6.4 8 Sudoeste 19 Sur 0 932.6 1 79
2019-04-26 02:00:00 6.8 6 Sur 32 Noroeste 0 932.5 1.6 79
2019-04-26 01:00:00 7.4 17 Noroeste 34 Noroeste 0 932.1 2.1 77
2019-04-26 00:00:00 7.2 13 Noroeste 20 Noroeste 0 931.6 2.5 80